Terminal Aerodrome Forecast
Issued by NWS

Home | Current Version | Previous Version | Text Only | Print | Product List | Glossary On
Versions: 1 2 3 4 5 6 7 8 9 10 11 12 13 14 15 16 17
867
FTUS41 KBTV 251730
TAFRUT
TAF
KRUT 251730Z 2518/2618 25006KT P6SM VCSH SCT100 BKN150
     FM252100 24006KT P6SM VCSH SCT035 BKN070
      TEMPO 2521/2601 3SM TSRA BR BKN030CB
     FM260300 19005KT P6SM VCSH SCT150
     FM260500 19007KT P6SM SCT130
     FM261400 27006KT P6SM SCT140
      AMD LTD TO CLD VIS AND WIND=

USA.gov is the U.S. government's official web portal to all federal, state and local government web resources and services.